Terminal Aerodrome Forecast
Issued by NWS Austin/San Antonio, TX

Home | Current Version | Previous Version | Text Only | Print | Product List | Glossary On
Versions: 1 2 3 4 5 6 7 8 9 10 11 12 13 14 15 16 17 18 19 20 21
306
FTUS44 KEWX 031926 AAB
TAFAUS
TAF AMD
KAUS 031926Z 0319/0424 01012KT 3SM RA BR BKN008 OVC015
      TEMPO 0319/0321 1SM +RA BR
     FM032200 01010KT 5SM -SHRA OVC008
     FM040700 36010KT 3SM SHRA OVC004
     FM041300 01012KT 5SM -SHRA OVC008=

USA.gov is the U.S. government's official web portal to all federal, state and local government web resources and services.